SIK63A LIRI-LIPY
Flight info
| Callsign | SIK63A |
|---|---|
| Flight time | 0h 44m |
| Altitude | 32000 |
| Route | SOR DCT EKMIL DCT OTRET M736 GERBU |
| Aircraft | B737/M-SDE2E3FGHIRWXY/LB1 |
Departure
| Time | 2026-04-21 12:32 |
|---|---|
| Airport | Salerno Costa d'Amalfi Airport (LIRI) |
Arrival
| Time | 2026-04-21 13:17 |
|---|---|
| Airport | Marche Airport (LIPY) |
| Time | Latitude | Longitude | Altitude | Speed | Heading |
|---|---|---|---|---|---|
| 2026-04-21 12:30 | 40.62220 | 14.91878 | 85 ft | 0 kts | 322° |
| 2026-04-21 12:30 | 40.62260 | 14.91838 | 83 ft | 12 kts | 322° |
| 2026-04-21 12:31 | 40.62304 | 14.91784 | 84 ft | 4 kts | 283° |
| 2026-04-21 12:31 | 40.62290 | 14.91749 | 85 ft | 3 kts | 232° |
| 2026-04-21 12:32 | 40.62143 | 14.91504 | 85 ft | 76 kts | 232° |
| 2026-04-21 12:32 | 40.61658 | 14.90685 | 103 ft | 145 kts | 232° |
| 2026-04-21 12:32 | 40.60959 | 14.89580 | 637 ft | 167 kts | 230° |
| 2026-04-21 12:32 | 40.60153 | 14.88340 | 1301 ft | 183 kts | 227° |
| 2026-04-21 12:33 | 40.59327 | 14.87127 | 1578 ft | 181 kts | 228° |
| 2026-04-21 12:33 | 40.58469 | 14.85787 | 1867 ft | 207 kts | 231° |
| 2026-04-21 12:33 | 40.57489 | 14.84169 | 2242 ft | 244 kts | 232° |
| 2026-04-21 12:33 | 40.56402 | 14.82385 | 3196 ft | 252 kts | 231° |
| 2026-04-21 12:34 | 40.55317 | 14.80623 | 4379 ft | 252 kts | 232° |
| 2026-04-21 12:34 | 40.54197 | 14.78823 | 5487 ft | 256 kts | 232° |
| 2026-04-21 12:34 | 40.53054 | 14.76996 | 6549 ft | 261 kts | 233° |
| 2026-04-21 12:34 | 40.51887 | 14.75141 | 7591 ft | 265 kts | 233° |
| 2026-04-21 12:35 | 40.50702 | 14.73266 | 8631 ft | 268 kts | 233° |
| 2026-04-21 12:35 | 40.49498 | 14.71364 | 9561 ft | 274 kts | 233° |
| 2026-04-21 12:35 | 40.48275 | 14.69436 | 9915 ft | 277 kts | 233° |
| 2026-04-21 12:35 | 40.47031 | 14.67476 | 10045 ft | 285 kts | 233° |
| 2026-04-21 12:36 | 40.45696 | 14.65370 | 10270 ft | 315 kts | 233° |
| 2026-04-21 12:36 | 40.44238 | 14.63077 | 10717 ft | 334 kts | 233° |
| 2026-04-21 12:36 | 40.42727 | 14.60706 | 11524 ft | 341 kts | 233° |
| 2026-04-21 12:36 | 40.41526 | 14.58045 | 12400 ft | 340 kts | 255° |
| 2026-04-21 12:37 | 40.41257 | 14.54985 | 13345 ft | 340 kts | 275° |
| 2026-04-21 12:37 | 40.41806 | 14.51971 | 14250 ft | 343 kts | 292° |
| 2026-04-21 12:37 | 40.43017 | 14.49302 | 15124 ft | 348 kts | 310° |
| 2026-04-21 12:37 | 40.44814 | 14.47149 | 16089 ft | 352 kts | 319° |
| 2026-04-21 12:38 | 40.46756 | 14.45168 | 17005 ft | 355 kts | 320° |
| 2026-04-21 12:38 | 40.48738 | 14.43202 | 17868 ft | 360 kts | 321° |
| 2026-04-21 12:38 | 40.50744 | 14.41194 | 18669 ft | 364 kts | 320° |
| 2026-04-21 12:38 | 40.52746 | 14.39150 | 19451 ft | 366 kts | 320° |
| 2026-04-21 12:39 | 40.54755 | 14.37078 | 20242 ft | 368 kts | 320° |
| 2026-04-21 12:39 | 40.56790 | 14.35012 | 21007 ft | 372 kts | 324° |
| 2026-04-21 12:39 | 40.59142 | 14.33522 | 21716 ft | 382 kts | 340° |
| 2026-04-21 12:39 | 40.61785 | 14.32888 | 22493 ft | 389 kts | 349° |
| 2026-04-21 12:40 | 40.64489 | 14.32528 | 23233 ft | 393 kts | 350° |
| 2026-04-21 12:40 | 40.67224 | 14.32225 | 23864 ft | 397 kts | 351° |
| 2026-04-21 12:40 | 40.69988 | 14.31931 | 24432 ft | 400 kts | 350° |
| 2026-04-21 12:40 | 40.72771 | 14.31627 | 24984 ft | 403 kts | 350° |
| 2026-04-21 12:41 | 40.75579 | 14.31308 | 25521 ft | 406 kts | 350° |
| 2026-04-21 12:41 | 40.78404 | 14.30974 | 26045 ft | 410 kts | 350° |
| 2026-04-21 12:41 | 40.81219 | 14.30633 | 26565 ft | 413 kts | 349° |
| 2026-04-21 12:41 | 40.84090 | 14.30280 | 27065 ft | 416 kts | 349° |
| 2026-04-21 12:42 | 40.86980 | 14.29921 | 27557 ft | 419 kts | 349° |
| 2026-04-21 12:42 | 40.89899 | 14.29557 | 28067 ft | 422 kts | 349° |
| 2026-04-21 12:42 | 40.92835 | 14.29190 | 28553 ft | 425 kts | 349° |
| 2026-04-21 12:42 | 40.95782 | 14.28821 | 29061 ft | 426 kts | 349° |
| 2026-04-21 12:43 | 40.98728 | 14.28454 | 29707 ft | 425 kts | 349° |
| 2026-04-21 12:43 | 41.01661 | 14.28089 | 30375 ft | 421 kts | 349° |
| 2026-04-21 12:43 | 41.04565 | 14.27727 | 30972 ft | 418 kts | 349° |
| 2026-04-21 12:43 | 41.07459 | 14.27366 | 31511 ft | 417 kts | 349° |
| 2026-04-21 12:44 | 41.10347 | 14.27003 | 31952 ft | 417 kts | 348° |
| 2026-04-21 12:44 | 41.15131 | 14.26401 | 31951 ft | 415 kts | 348° |
| 2026-04-21 12:45 | 41.20886 | 14.25674 | 31973 ft | 416 kts | 348° |
| 2026-04-21 12:45 | 41.26655 | 14.24944 | 31966 ft | 417 kts | 348° |
| 2026-04-21 12:46 | 41.32460 | 14.24210 | 31961 ft | 419 kts | 348° |
| 2026-04-21 12:46 | 41.38268 | 14.23475 | 31938 ft | 419 kts | 348° |
| 2026-04-21 12:47 | 41.44992 | 14.22624 | 31927 ft | 416 kts | 348° |
| 2026-04-21 12:47 | 41.49813 | 14.22012 | 31915 ft | 414 kts | 348° |
| 2026-04-21 12:48 | 41.55540 | 14.21284 | 31914 ft | 413 kts | 348° |
| 2026-04-21 12:48 | 41.61257 | 14.20554 | 31926 ft | 412 kts | 348° |
| 2026-04-21 12:49 | 41.66976 | 14.19822 | 31924 ft | 413 kts | 348° |
| 2026-04-21 12:49 | 41.72676 | 14.19091 | 31913 ft | 415 kts | 348° |
| 2026-04-21 12:50 | 41.78430 | 14.18354 | 31929 ft | 416 kts | 348° |
| 2026-04-21 12:50 | 41.84189 | 14.17614 | 31921 ft | 416 kts | 348° |
| 2026-04-21 12:51 | 41.89934 | 14.16877 | 31927 ft | 413 kts | 348° |
| 2026-04-21 12:51 | 41.95659 | 14.16138 | 31932 ft | 414 kts | 348° |
| 2026-04-21 12:52 | 42.01405 | 14.15395 | 31936 ft | 415 kts | 348° |
| 2026-04-21 12:52 | 42.07173 | 14.14648 | 31931 ft | 416 kts | 348° |
| 2026-04-21 12:53 | 42.12913 | 14.13907 | 31937 ft | 412 kts | 348° |
| 2026-04-21 12:53 | 42.18617 | 14.13105 | 31962 ft | 411 kts | 346° |
| 2026-04-21 12:54 | 42.24249 | 14.11973 | 31954 ft | 413 kts | 345° |
| 2026-04-21 12:54 | 42.29952 | 14.10765 | 31946 ft | 415 kts | 345° |
| 2026-04-21 12:55 | 42.35662 | 14.09586 | 31967 ft | 414 kts | 345° |
| 2026-04-21 12:55 | 42.41350 | 14.08430 | 31842 ft | 412 kts | 345° |
| 2026-04-21 12:55 | 42.44202 | 14.07848 | 31074 ft | 415 kts | 345° |
| 2026-04-21 12:56 | 42.47056 | 14.07268 | 30264 ft | 414 kts | 345° |
| 2026-04-21 12:56 | 42.49909 | 14.06687 | 29460 ft | 412 kts | 345° |
| 2026-04-21 12:56 | 42.52724 | 14.06116 | 28781 ft | 407 kts | 345° |
| 2026-04-21 12:56 | 42.55503 | 14.05551 | 28153 ft | 401 kts | 345° |
| 2026-04-21 12:57 | 42.58249 | 14.04990 | 27501 ft | 397 kts | 345° |
| 2026-04-21 12:57 | 42.60972 | 14.04431 | 26833 ft | 394 kts | 345° |
| 2026-04-21 12:57 | 42.63675 | 14.03877 | 26176 ft | 390 kts | 345° |
| 2026-04-21 12:57 | 42.66349 | 14.03329 | 25537 ft | 387 kts | 345° |
| 2026-04-21 12:58 | 42.68981 | 14.02671 | 24902 ft | 381 kts | 339° |
| 2026-04-21 12:58 | 42.71456 | 14.01535 | 24259 ft | 372 kts | 331° |
| 2026-04-21 12:58 | 42.73809 | 14.00092 | 23628 ft | 370 kts | 330° |
| 2026-04-21 12:58 | 42.76144 | 13.98633 | 22899 ft | 369 kts | 330° |
| 2026-04-21 12:59 | 42.78467 | 13.97180 | 22236 ft | 366 kts | 330° |
| 2026-04-21 12:59 | 42.80775 | 13.95741 | 21566 ft | 364 kts | 330° |
| 2026-04-21 12:59 | 42.83046 | 13.94330 | 20935 ft | 362 kts | 330° |
| 2026-04-21 12:59 | 42.85335 | 13.92913 | 20316 ft | 360 kts | 331° |
| 2026-04-21 13:00 | 42.87612 | 13.91504 | 19692 ft | 359 kts | 331° |
| 2026-04-21 13:00 | 42.89883 | 13.90100 | 19076 ft | 358 kts | 331° |
| 2026-04-21 13:00 | 42.92152 | 13.88696 | 18450 ft | 358 kts | 331° |
| 2026-04-21 13:00 | 42.94413 | 13.87297 | 17765 ft | 357 kts | 331° |
| 2026-04-21 13:01 | 42.96669 | 13.85901 | 17091 ft | 354 kts | 331° |
| 2026-04-21 13:01 | 42.98905 | 13.84516 | 16500 ft | 351 kts | 331° |
| 2026-04-21 13:01 | 43.01116 | 13.83149 | 15864 ft | 349 kts | 331° |
| 2026-04-21 13:01 | 43.03303 | 13.81792 | 15236 ft | 340 kts | 331° |
| 2026-04-21 13:02 | 43.05455 | 13.80454 | 14659 ft | 341 kts | 331° |
| 2026-04-21 13:02 | 43.07625 | 13.79102 | 14064 ft | 344 kts | 331° |
| 2026-04-21 13:02 | 43.11891 | 13.76447 | 12753 ft | 332 kts | 332° |
| 2026-04-21 13:03 | 43.13966 | 13.75157 | 12149 ft | 322 kts | 332° |
| 2026-04-21 13:03 | 43.15970 | 13.73910 | 11556 ft | 311 kts | 332° |
| 2026-04-21 13:03 | 43.17910 | 13.72700 | 11013 ft | 301 kts | 332° |
| 2026-04-21 13:03 | 43.19793 | 13.71524 | 10498 ft | 294 kts | 332° |
| 2026-04-21 13:04 | 43.21603 | 13.70395 | 10367 ft | 279 kts | 332° |
| 2026-04-21 13:04 | 43.23354 | 13.69300 | 10226 ft | 275 kts | 332° |
| 2026-04-21 13:04 | 43.25084 | 13.68217 | 10129 ft | 272 kts | 332° |
| 2026-04-21 13:04 | 43.26789 | 13.67152 | 10012 ft | 267 kts | 332° |
| 2026-04-21 13:05 | 43.28478 | 13.66099 | 9777 ft | 268 kts | 332° |
| 2026-04-21 13:05 | 43.30177 | 13.65039 | 9408 ft | 267 kts | 332° |
| 2026-04-21 13:05 | 43.31868 | 13.63984 | 9028 ft | 267 kts | 332° |
| 2026-04-21 13:05 | 43.33552 | 13.62933 | 8659 ft | 264 kts | 332° |
| 2026-04-21 13:06 | 43.35061 | 13.61605 | 8268 ft | 253 kts | 314° |
| 2026-04-21 13:06 | 43.36267 | 13.59927 | 8074 ft | 240 kts | 312° |
| 2026-04-21 13:06 | 43.37402 | 13.58340 | 7951 ft | 228 kts | 312° |
| 2026-04-21 13:06 | 43.38494 | 13.56826 | 7848 ft | 218 kts | 312° |
| 2026-04-21 13:07 | 43.39463 | 13.55309 | 7745 ft | 212 kts | 296° |
| 2026-04-21 13:07 | 43.39816 | 13.53340 | 7604 ft | 215 kts | 270° |
| 2026-04-21 13:07 | 43.39489 | 13.51330 | 7361 ft | 223 kts | 247° |
| 2026-04-21 13:07 | 43.38739 | 13.49475 | 7084 ft | 219 kts | 242° |
| 2026-04-21 13:08 | 43.37976 | 13.47689 | 6802 ft | 213 kts | 242° |
| 2026-04-21 13:08 | 43.37237 | 13.45954 | 6560 ft | 208 kts | 242° |
| 2026-04-21 13:08 | 43.36517 | 13.44259 | 6436 ft | 202 kts | 242° |
| 2026-04-21 13:08 | 43.36091 | 13.42476 | 6305 ft | 196 kts | 272° |
| 2026-04-21 13:09 | 43.36450 | 13.40697 | 6131 ft | 194 kts | 298° |
| 2026-04-21 13:09 | 43.37310 | 13.39275 | 5914 ft | 194 kts | 313° |
| 2026-04-21 13:09 | 43.38269 | 13.37961 | 5673 ft | 196 kts | 313° |
| 2026-04-21 13:09 | 43.39237 | 13.36640 | 5435 ft | 196 kts | 313° |
| 2026-04-21 13:10 | 43.40201 | 13.35315 | 5202 ft | 196 kts | 313° |
| 2026-04-21 13:10 | 43.41157 | 13.33972 | 4948 ft | 196 kts | 313° |
| 2026-04-21 13:10 | 43.42109 | 13.32631 | 4710 ft | 196 kts | 313° |
| 2026-04-21 13:10 | 43.43056 | 13.31293 | 4461 ft | 194 kts | 313° |
| 2026-04-21 13:11 | 43.43994 | 13.29969 | 4228 ft | 192 kts | 313° |
| 2026-04-21 13:11 | 43.44916 | 13.28668 | 4018 ft | 188 kts | 313° |
| 2026-04-21 13:11 | 43.45816 | 13.27395 | 3775 ft | 183 kts | 315° |
| 2026-04-21 13:11 | 43.46683 | 13.26170 | 3553 ft | 174 kts | 315° |
| 2026-04-21 13:12 | 43.47529 | 13.24975 | 3387 ft | 176 kts | 315° |
| 2026-04-21 13:12 | 43.48384 | 13.23766 | 3173 ft | 176 kts | 316° |
| 2026-04-21 13:12 | 43.49235 | 13.22564 | 2973 ft | 174 kts | 317° |
| 2026-04-21 13:12 | 43.50259 | 13.21801 | 2744 ft | 167 kts | 2° |
| 2026-04-21 13:13 | 43.51278 | 13.22397 | 2668 ft | 165 kts | 40° |
| 2026-04-21 13:13 | 43.52160 | 13.23390 | 2457 ft | 158 kts | 41° |
| 2026-04-21 13:13 | 43.52939 | 13.24358 | 2211 ft | 144 kts | 44° |
| 2026-04-21 13:13 | 43.53638 | 13.25282 | 2022 ft | 134 kts | 45° |
| 2026-04-21 13:14 | 43.54283 | 13.26152 | 1852 ft | 128 kts | 46° |
| 2026-04-21 13:14 | 43.54903 | 13.26998 | 1693 ft | 127 kts | 46° |
| 2026-04-21 13:14 | 43.55538 | 13.27867 | 1502 ft | 127 kts | 46° |
| 2026-04-21 13:14 | 43.56159 | 13.28718 | 1359 ft | 127 kts | 46° |
| 2026-04-21 13:15 | 43.56782 | 13.29574 | 1184 ft | 126 kts | 45° |
| 2026-04-21 13:15 | 43.57404 | 13.30428 | 1024 ft | 127 kts | 45° |
| 2026-04-21 13:15 | 43.58021 | 13.31276 | 854 ft | 124 kts | 45° |
| 2026-04-21 13:15 | 43.58639 | 13.32123 | 688 ft | 125 kts | 45° |
| 2026-04-21 13:16 | 43.59254 | 13.32976 | 505 ft | 127 kts | 45° |
| 2026-04-21 13:16 | 43.59881 | 13.33840 | 313 ft | 128 kts | 43° |
| 2026-04-21 13:16 | 43.60522 | 13.34696 | 131 ft | 126 kts | 46° |
| 2026-04-21 13:16 | 43.61103 | 13.35506 | 51 ft | 110 kts | 45° |
| 2026-04-21 13:17 | 43.61562 | 13.36136 | 48 ft | 74 kts | 45° |
| 2026-04-21 13:17 | 43.61832 | 13.36505 | 44 ft | 44 kts | 45° |
| 2026-04-21 13:17 | 43.62036 | 13.36782 | 40 ft | 38 kts | 45° |
| 2026-04-21 13:17 | 43.62125 | 13.36918 | 41 ft | 6 kts | 73° |
| 2026-04-21 13:18 | 43.62144 | 13.36959 | 40 ft | 2 kts | 26° |
| 2026-04-21 13:18 | 43.62152 | 13.36930 | 40 ft | 7 kts | 266° |
| 2026-04-21 13:18 | 43.62112 | 13.36873 | 41 ft | 10 kts | 219° |
| 2026-04-21 13:18 | 43.62039 | 13.36786 | 40 ft | 18 kts | 226° |
| 2026-04-21 13:19 | 43.61930 | 13.36637 | 43 ft | 26 kts | 225° |
| 2026-04-21 13:19 | 43.61797 | 13.36455 | 45 ft | 27 kts | 225° |
| 2026-04-21 13:19 | 43.61670 | 13.36281 | 47 ft | 25 kts | 225° |
| 2026-04-21 13:19 | 43.61538 | 13.36101 | 47 ft | 31 kts | 225° |
| 2026-04-21 13:20 | 43.61425 | 13.35946 | 46 ft | 38 kts | 225° |
| 2026-04-21 13:20 | 43.61200 | 13.35636 | 52 ft | 22 kts | 230° |
| 2026-04-21 13:20 | 43.61071 | 13.35553 | 50 ft | 21 kts | 175° |
| 2026-04-21 13:20 | 43.60942 | 13.35565 | 50 ft | 16 kts | 187° |
| 2026-04-21 13:21 | 43.60875 | 13.35510 | 51 ft | 9 kts | 223° |
| 2026-04-21 13:21 | 43.60833 | 13.35463 | 52 ft | 6 kts | 186° |
| 2026-04-21 13:21 | 43.60804 | 13.35489 | 49 ft | 4 kts | 131° |
| 2026-04-21 13:21 | 43.60788 | 13.35501 | 50 ft | 0 kts | 159° |